CheckWX is a tool to help pilots better visualize weather data.  It is not intended as a substitute for an official pre-flight weather briefing.

12:22:10 UTC

CYDL METAR
Dease Lake Airport
Dease Lake, Canada
Current

22 mins ago

CYDL 221200Z AUTO 36010G16KT 310V040 1 1/4SM -SN OVC017 M05/M07 A2946 RMK PCPN 0.5MM PAST HR SLP010
Observed
Feb-22 @ 12:00 UTC
Wind
  • 360° at 10 KTS
  • Gusting to KTS
Visibility
1 1/4 SM
Flight Rules
IFR
Conditions
Light Snow
Cloud Levels
  • Overcast at 1,700' AGL
Temperature
-5°C / 23°F
Dewpoint
-7°C / 19°F
Humidity
86%
Altimeter
29.46" Hg
Pressure
1001 hPa
Previous

1 hour ago

CYDL 221100Z AUTO 02004KT 330V050 3/4SM -SN VV012 M05/M06 A2943 RMK SLP999
Observed
Feb-22 @ 11:00 UTC
Wind
  • 020° at 4 KTS
Visibility
3/4 SM
Flight Rules
LIFR
Conditions
Light Snow
Cloud Levels
  • Vertical visibility at 1,200' AGL
Temperature
-5°C / 23°F
Dewpoint
-6°C / 21°F
Humidity
93%
Altimeter
29.43" Hg
Pressure
999.9 hPa
Previous

2 hours ago

CYDL 221000Z AUTO 01003KT 340V040 3/4SM -SN VV013 M05/M06 A2941 RMK SLP993
Observed
Feb-22 @ 10:00 UTC
Wind
  • 010° at 3 KTS
Visibility
3/4 SM
Flight Rules
LIFR
Conditions
Light Snow
Cloud Levels
  • Vertical visibility at 1,300' AGL
Temperature
-5°C / 23°F
Dewpoint
-6°C / 21°F
Humidity
93%
Altimeter
29.41" Hg
Pressure
999.3 hPa